Terminal Aerodrome Forecast
Issued by NWS

Home | Current Version | Previous Version | Text Only | Print | Product List | Glossary On
Versions: 1 2 3 4 5 6 7 8 9 10 11 12 13 14 15 16 17 18 19 20 21 22 23 24 25 26 27 28
000
FTUS45 KGJT 231737
TAFDRO
TAF
KDRO 231737Z 2318/2418 26012G20KT P6SM SCT070 BKN090
     FM231900 28014G25KT P6SM FEW060 BKN120
     FM240300 29008KT P6SM SCT120
     FM241700 26010G17KT P6SM BKN250=

USA.gov is the U.S. government's official web portal to all federal, state and local government web resources and services.